createdAt,value
2023-05-14T00:01:54.927Z,12.90
2023-05-14T00:04:22.482Z,12.90
2023-05-14T00:06:49.429Z,13.00
2023-05-14T00:09:16.803Z,13.10
2023-05-14T00:11:43.717Z,13.20
2023-05-14T00:14:10.617Z,13.10
2023-05-14T00:16:37.650Z,13.00
2023-05-14T00:19:04.764Z,13.00
2023-05-14T00:21:32.380Z,13.00
2023-05-14T00:23:59.291Z,12.90
2023-05-14T00:26:26.200Z,12.80
2023-05-14T00:28:53.071Z,12.70
2023-05-14T00:31:20.000Z,12.70
2023-05-14T00:33:46.934Z,12.70
2023-05-14T00:36:13.792Z,12.80
2023-05-14T00:38:40.714Z,12.80
2023-05-14T00:41:07.647Z,12.70
2023-05-14T00:43:34.506Z,12.60
2023-05-14T00:46:01.553Z,12.40
2023-05-14T00:48:28.413Z,12.30
2023-05-14T00:50:55.852Z,12.20
2023-05-14T00:53:22.902Z,12.20
2023-05-14T00:55:50.575Z,12.20
2023-05-14T00:58:19.476Z,12.10
2023-05-14T01:00:46.485Z,12.10
2023-05-14T01:03:13.510Z,12.00
2023-05-14T01:06:14.756Z,12.00
2023-05-14T01:09:09.044Z,11.90
2023-05-14T01:11:56.202Z,11.90
2023-05-14T01:14:54.460Z,11.80
2023-05-14T01:17:24.020Z,11.80
2023-05-14T01:19:52.260Z,11.80
2023-05-14T01:22:19.121Z,11.80
2023-05-14T01:24:46.101Z,11.80
2023-05-14T01:27:38.061Z,11.80
2023-05-14T01:30:10.992Z,11.70
2023-05-14T01:32:40.102Z,11.60
2023-05-14T01:35:09.709Z,11.60
2023-05-14T01:37:38.110Z,11.60
2023-05-14T01:40:06.475Z,11.50
2023-05-14T01:42:33.565Z,11.40
2023-05-14T01:45:00.895Z,11.40
2023-05-14T01:47:27.826Z,11.50
2023-05-14T01:49:54.699Z,11.50
2023-05-14T01:52:21.656Z,11.40
2023-05-14T01:54:48.906Z,11.40
2023-05-14T01:57:15.818Z,11.30
2023-05-14T01:59:42.702Z,11.30
2023-05-14T02:02:09.600Z,11.30
2023-05-14T02:04:36.500Z,11.30
2023-05-14T02:07:03.319Z,11.40
2023-05-14T02:09:30.930Z,11.30
2023-05-14T02:11:57.806Z,11.30
2023-05-14T02:14:24.683Z,11.20
2023-05-14T02:16:51.635Z,11.10
2023-05-14T02:19:18.965Z,11.10
2023-05-14T02:21:45.992Z,11.10
2023-05-14T02:24:12.848Z,11.10
2023-05-14T02:26:39.816Z,11.00
2023-05-14T02:29:06.694Z,11.00
2023-05-14T02:31:34.051Z,11.00
2023-05-14T02:34:05.405Z,11.00
2023-05-14T02:36:32.664Z,11.00
2023-05-14T02:39:01.250Z,11.00
2023-05-14T02:41:28.130Z,11.00
2023-05-14T02:43:55.044Z,11.00
2023-05-14T02:46:22.144Z,10.90
2023-05-14T02:48:49.023Z,10.80
2023-05-14T02:51:16.692Z,10.80
2023-05-14T02:53:43.597Z,10.70
2023-05-14T02:56:10.496Z,10.70
2023-05-14T02:58:37.470Z,10.60
2023-05-14T03:01:04.708Z,10.60
2023-05-14T03:03:32.024Z,10.50
2023-05-14T03:05:59.538Z,10.50
2023-05-14T03:08:26.401Z,10.50
2023-05-14T03:10:53.317Z,10.50
2023-05-14T03:13:20.886Z,10.50
2023-05-14T03:15:47.853Z,10.50
2023-05-14T03:18:15.191Z,10.50
2023-05-14T03:20:42.520Z,10.50
2023-05-14T03:23:09.406Z,10.50
2023-05-14T03:25:36.402Z,10.50
2023-05-14T03:28:03.872Z,10.50
2023-05-14T03:30:30.919Z,10.60
2023-05-14T03:32:58.205Z,10.60
2023-05-14T03:35:25.600Z,10.60
2023-05-14T03:37:53.167Z,10.50
2023-05-14T03:40:21.523Z,10.50
2023-05-14T03:42:48.679Z,10.50
2023-05-14T03:45:15.573Z,10.50
2023-05-14T03:47:42.624Z,10.50
2023-05-14T03:50:09.746Z,10.60
2023-05-14T03:52:36.695Z,10.60
2023-05-14T03:55:04.084Z,10.60
2023-05-14T03:57:31.176Z,10.60
2023-05-14T03:59:58.120Z,10.70
2023-05-14T04:02:25.599Z,10.70
2023-05-14T04:04:52.701Z,10.70
2023-05-14T04:07:19.718Z,10.70
2023-05-14T04:09:46.670Z,10.70
2023-05-14T04:12:13.621Z,10.70
2023-05-14T04:14:40.644Z,10.80
2023-05-14T04:17:07.562Z,10.90
2023-05-14T04:19:34.406Z,10.90
2023-05-14T04:22:01.305Z,11.00
2023-05-14T04:24:28.214Z,11.10
2023-05-14T04:26:55.103Z,11.20
2023-05-14T04:29:21.998Z,11.40
2023-05-14T04:31:50.041Z,11.50
2023-05-14T04:34:16.924Z,11.60
2023-05-14T04:36:43.778Z,11.70
2023-05-14T04:39:13.146Z,11.90
2023-05-14T04:41:40.292Z,12.00
2023-05-14T04:44:07.669Z,12.10
2023-05-14T04:46:34.711Z,12.30
2023-05-14T04:49:01.750Z,12.30
2023-05-14T04:51:28.692Z,12.50
2023-05-14T04:53:55.686Z,12.70
2023-05-14T04:56:22.548Z,12.80
2023-05-14T04:58:49.451Z,12.90
2023-05-14T05:01:16.667Z,13.10
2023-05-14T05:03:43.644Z,13.20
2023-05-14T05:06:10.670Z,13.40
2023-05-14T05:08:37.850Z,13.60
2023-05-14T05:11:05.219Z,13.70
2023-05-14T05:13:32.375Z,13.90
2023-05-14T05:15:59.567Z,14.10
2023-05-14T05:18:26.613Z,14.20
2023-05-14T05:20:53.643Z,14.40
2023-05-14T05:23:20.545Z,14.50
2023-05-14T05:25:47.429Z,14.70
2023-05-14T05:28:14.566Z,14.90
2023-05-14T05:30:41.589Z,15.00
2023-05-14T05:33:08.548Z,15.20
2023-05-14T05:35:35.514Z,15.30
2023-05-14T05:38:02.352Z,15.40
2023-05-14T05:40:29.451Z,15.50
2023-05-14T05:42:56.328Z,15.70
2023-05-14T05:45:23.354Z,15.80
2023-05-14T05:47:50.370Z,16.00
2023-05-14T05:50:18.844Z,16.10
2023-05-14T05:52:46.844Z,16.20
2023-05-14T05:55:13.765Z,16.40
2023-05-14T05:57:40.775Z,16.60
2023-05-14T06:00:13.253Z,16.80
2023-05-14T06:02:41.732Z,16.90
2023-05-14T06:05:10.209Z,17.00
2023-05-14T06:07:37.213Z,17.20
2023-05-14T06:10:05.000Z,17.30
2023-05-14T06:12:32.032Z,17.50
2023-05-14T06:14:59.033Z,17.60
2023-05-14T06:17:26.095Z,17.80
2023-05-14T06:19:53.408Z,17.90
2023-05-14T06:22:20.452Z,18.00
2023-05-14T06:24:48.128Z,18.20
2023-05-14T06:27:15.005Z,18.30
2023-05-14T06:29:41.944Z,18.50
2023-05-14T06:32:09.174Z,18.60
2023-05-14T06:34:36.067Z,18.80
2023-05-14T06:37:04.276Z,18.90
2023-05-14T06:39:31.225Z,19.00
2023-05-14T06:41:58.100Z,19.10
2023-05-14T06:44:25.085Z,19.30
2023-05-14T06:46:52.169Z,19.40
2023-05-14T06:49:19.159Z,19.50
2023-05-14T06:51:46.130Z,19.60
2023-05-14T06:54:13.368Z,19.70
2023-05-14T06:56:40.390Z,19.80
2023-05-14T06:59:07.271Z,19.90
2023-05-14T07:01:34.162Z,20.00
2023-05-14T07:04:01.115Z,20.10
2023-05-14T07:06:28.089Z,20.20
2023-05-14T07:08:55.271Z,20.20
2023-05-14T07:11:22.390Z,20.30
2023-05-14T07:13:49.459Z,20.40
2023-05-14T07:16:16.379Z,20.50
2023-05-14T07:18:43.998Z,20.50
2023-05-14T07:21:11.306Z,20.60
2023-05-14T07:23:41.077Z,20.60
2023-05-14T07:26:08.553Z,20.70
2023-05-14T07:28:35.672Z,20.70
2023-05-14T07:31:09.067Z,20.70
2023-05-14T07:33:36.671Z,20.80
2023-05-14T07:36:03.695Z,20.90
2023-05-14T07:38:31.241Z,20.90
2023-05-14T07:40:58.713Z,20.90
2023-05-14T07:43:25.888Z,20.90
2023-05-14T07:45:53.038Z,20.90
2023-05-14T07:48:20.062Z,21.00
2023-05-14T07:50:48.277Z,21.00
2023-05-14T07:53:15.450Z,21.10
2023-05-14T07:55:42.439Z,21.10
2023-05-14T07:58:09.513Z,21.10
2023-05-14T08:00:36.565Z,21.10
2023-05-14T08:03:03.714Z,21.00
2023-05-14T08:05:31.955Z,21.10
2023-05-14T08:07:58.894Z,21.10
2023-05-14T08:10:26.284Z,21.20
2023-05-14T08:12:53.456Z,21.30
2023-05-14T08:15:20.606Z,21.30
2023-05-14T08:17:47.537Z,21.40
2023-05-14T08:20:14.578Z,21.30
2023-05-14T08:22:41.431Z,21.30
2023-05-14T08:25:08.617Z,21.30
2023-05-14T08:27:35.486Z,21.30
2023-05-14T08:30:02.615Z,21.40
2023-05-14T08:32:29.959Z,21.50
2023-05-14T08:34:56.893Z,21.50
2023-05-14T08:37:23.847Z,21.60
2023-05-14T08:39:50.738Z,21.70
2023-05-14T08:42:21.941Z,21.80
2023-05-14T08:44:53.235Z,21.80
2023-05-14T08:47:22.264Z,22.00
2023-05-14T08:49:55.311Z,22.10
2023-05-14T08:52:23.183Z,22.10
2023-05-14T08:54:53.699Z,22.20
2023-05-14T08:57:23.839Z,21.80
2023-05-14T08:59:51.741Z,22.30
2023-05-14T09:02:24.477Z,22.40
2023-05-14T09:04:59.015Z,22.40
2023-05-14T09:07:26.596Z,22.50
2023-05-14T09:09:54.491Z,22.50
2023-05-14T09:12:22.273Z,22.60
2023-05-14T09:14:50.574Z,22.60
2023-05-14T09:17:18.705Z,22.70
2023-05-14T09:19:49.223Z,22.70
2023-05-14T09:22:17.917Z,22.80
2023-05-14T09:24:45.963Z,22.90
2023-05-14T09:27:22.240Z,22.80
2023-05-14T09:29:49.120Z,22.90
2023-05-14T09:32:16.106Z,22.80
2023-05-14T09:34:42.962Z,22.80
2023-05-14T09:37:10.089Z,22.70
2023-05-14T09:39:38.740Z,22.80
2023-05-14T09:42:06.179Z,22.80
2023-05-14T09:44:33.231Z,22.90
2023-05-14T09:47:00.170Z,23.00
2023-05-14T09:49:27.203Z,23.10
2023-05-14T09:51:54.102Z,23.00
2023-05-14T09:54:21.022Z,23.00
2023-05-14T09:56:47.912Z,23.00
2023-05-14T09:59:15.103Z,23.10
2023-05-14T10:01:44.294Z,23.20
2023-05-14T10:04:12.281Z,23.30
2023-05-14T10:06:40.318Z,23.30
2023-05-14T10:09:13.102Z,23.40
2023-05-14T10:11:44.100Z,23.40
2023-05-14T10:14:20.642Z,23.40
2023-05-14T10:16:53.070Z,23.30
2023-05-14T10:19:22.946Z,23.30
2023-05-14T10:21:57.263Z,23.30
2023-05-14T10:24:25.762Z,23.20
2023-05-14T10:26:53.570Z,23.20
2023-05-14T10:29:20.790Z,23.20
2023-05-14T10:31:47.811Z,23.20
2023-05-14T10:34:38.040Z,23.10
2023-05-14T10:37:13.842Z,23.10
2023-05-14T10:39:48.171Z,23.20
2023-05-14T10:42:37.593Z,23.40
2023-05-14T10:45:08.238Z,23.40
2023-05-14T10:47:37.889Z,23.40
2023-05-14T10:50:07.450Z,23.50
2023-05-14T10:52:35.480Z,23.50
2023-05-14T10:55:10.251Z,23.50
2023-05-14T10:57:38.065Z,23.60
2023-05-14T11:00:10.856Z,23.50
2023-05-14T11:02:40.114Z,23.50
2023-05-14T11:05:09.424Z,23.40
2023-05-14T11:07:42.497Z,23.30
2023-05-14T11:10:14.892Z,21.50
2023-05-14T11:12:46.884Z,23.40
2023-05-14T11:15:16.111Z,23.40
2023-05-14T11:17:44.879Z,23.20
2023-05-14T11:20:13.177Z,23.80
2023-05-14T11:22:41.766Z,23.00
2023-05-14T11:25:09.862Z,23.10
2023-05-14T11:27:40.623Z,23.30
2023-05-14T11:30:13.675Z,23.30
2023-05-14T11:32:41.644Z,23.10
2023-05-14T11:35:09.073Z,22.80
2023-05-14T11:37:36.062Z,22.50
2023-05-14T11:40:03.312Z,22.20
2023-05-14T11:42:30.424Z,21.90
2023-05-14T11:44:57.444Z,21.70
2023-05-14T11:47:24.390Z,21.40
2023-05-14T11:49:51.341Z,21.10
2023-05-14T11:52:19.705Z,21.00
2023-05-14T11:54:47.145Z,21.00
2023-05-14T11:57:20.137Z,21.10
2023-05-14T11:59:48.267Z,21.30
2023-05-14T12:02:19.844Z,21.50
2023-05-14T12:04:52.219Z,21.60
2023-05-14T12:07:19.576Z,21.80
2023-05-14T12:09:50.151Z,22.00
2023-05-14T12:12:23.357Z,22.20
2023-05-14T12:14:51.205Z,22.30
2023-05-14T12:17:20.931Z,22.40
2023-05-14T12:19:50.452Z,22.50
2023-05-14T12:22:22.519Z,22.60
2023-05-14T12:24:55.822Z,22.50
2023-05-14T12:27:26.931Z,22.50
2023-05-14T12:30:19.001Z,22.50
2023-05-14T12:32:51.826Z,22.40
2023-05-14T12:35:19.239Z,22.40
2023-05-14T12:37:46.467Z,22.30
2023-05-14T12:40:13.595Z,22.30
2023-05-14T12:42:40.527Z,22.10
2023-05-14T12:45:08.760Z,22.00
2023-05-14T12:47:37.184Z,22.00
2023-05-14T12:50:04.999Z,22.10
2023-05-14T12:55:01.800Z,22.30
2023-05-14T12:57:30.226Z,22.30
2023-05-14T12:59:57.772Z,22.20
2023-05-14T13:02:24.639Z,22.30
2023-05-14T13:04:51.517Z,22.40
2023-05-14T13:07:18.683Z,22.40
2023-05-14T13:09:45.603Z,22.20
2023-05-14T13:12:12.524Z,22.00
2023-05-14T13:14:39.372Z,21.90
2023-05-14T13:17:08.182Z,21.80
2023-05-14T13:19:35.487Z,21.70
2023-05-14T13:22:02.726Z,21.70
2023-05-14T13:24:29.701Z,21.60
2023-05-14T13:26:56.740Z,21.60
2023-05-14T13:29:24.691Z,21.50
2023-05-14T13:31:51.807Z,21.50
2023-05-14T13:34:19.009Z,21.60
2023-05-14T13:36:47.327Z,21.70
2023-05-14T13:39:14.649Z,21.70
2023-05-14T13:41:42.236Z,21.70
2023-05-14T13:44:09.241Z,21.70
2023-05-14T13:46:36.325Z,21.60
2023-05-14T13:49:03.407Z,21.40
2023-05-14T13:51:31.317Z,21.20
2023-05-14T13:53:58.257Z,21.10
2023-05-14T13:56:25.206Z,21.20
2023-05-14T13:58:52.957Z,21.30
2023-05-14T14:01:20.039Z,21.20
2023-05-14T14:03:47.080Z,21.20
2023-05-14T14:06:14.177Z,21.20
2023-05-14T14:08:43.764Z,21.30
2023-05-14T14:11:10.878Z,21.40
2023-05-14T14:13:37.844Z,21.40
2023-05-14T14:16:06.360Z,21.30
2023-05-14T14:18:33.983Z,21.40
2023-05-14T14:21:00.954Z,21.50
2023-05-14T14:23:27.833Z,21.50
2023-05-14T14:25:54.786Z,21.50
2023-05-14T14:28:21.698Z,21.30
2023-05-14T14:30:48.896Z,21.20
2023-05-14T14:33:16.049Z,21.00
2023-05-14T14:35:43.014Z,20.90
2023-05-14T14:38:09.902Z,21.00
2023-05-14T14:40:36.912Z,21.00
2023-05-14T14:43:03.791Z,20.80
2023-05-14T14:45:30.924Z,20.80
2023-05-14T14:48:27.265Z,20.70
2023-05-14T14:50:55.214Z,20.50
2023-05-14T14:53:22.890Z,20.50
2023-05-14T14:55:50.772Z,20.50
2023-05-14T14:58:19.547Z,20.40
2023-05-14T15:00:47.163Z,20.30
2023-05-14T15:03:15.307Z,20.20
2023-05-14T15:05:42.818Z,20.10
2023-05-14T15:08:10.337Z,20.00
2023-05-14T15:10:38.433Z,19.90
2023-05-14T15:13:06.495Z,19.80
2023-05-14T15:15:34.382Z,19.80
2023-05-14T15:18:01.650Z,19.60
2023-05-14T15:20:28.684Z,19.60
2023-05-14T15:22:56.448Z,19.60
2023-05-14T15:25:24.348Z,19.60
2023-05-14T15:27:51.475Z,19.70
2023-05-14T15:30:19.632Z,19.70
2023-05-14T15:32:46.921Z,19.60
2023-05-14T15:35:14.220Z,19.60
2023-05-14T15:37:43.064Z,19.60
2023-05-14T15:40:11.143Z,19.50
2023-05-14T15:42:42.356Z,19.50
2023-05-14T15:45:10.631Z,19.50
2023-05-14T15:47:37.820Z,19.40
2023-05-14T15:50:05.465Z,19.40
2023-05-14T15:52:32.557Z,19.50
2023-05-14T15:54:59.745Z,19.50
2023-05-14T15:57:27.699Z,19.60
2023-05-14T15:59:54.736Z,19.60
2023-05-14T16:02:21.560Z,19.60
2023-05-14T16:04:49.666Z,19.60
2023-05-14T16:07:16.807Z,19.70
2023-05-14T16:09:43.811Z,19.70
2023-05-14T16:12:10.828Z,19.70
2023-05-14T16:14:38.611Z,19.70
2023-05-14T16:17:07.586Z,19.70
2023-05-14T16:19:34.432Z,19.60
2023-05-14T16:22:01.433Z,19.60
2023-05-14T16:24:28.329Z,19.60
2023-05-14T16:26:55.455Z,19.60
2023-05-14T16:29:22.514Z,19.50
2023-05-14T16:31:49.554Z,19.50
2023-05-14T16:34:16.566Z,19.40
2023-05-14T16:36:43.638Z,19.40
2023-05-14T16:39:11.751Z,19.40
2023-05-14T16:41:38.644Z,19.30
2023-05-14T16:44:05.546Z,19.30
2023-05-14T16:46:33.080Z,19.30
2023-05-14T16:49:00.138Z,19.20
2023-05-14T16:51:26.951Z,19.20
2023-05-14T16:53:55.485Z,19.20
2023-05-14T16:56:22.781Z,19.20
2023-05-14T16:58:49.916Z,19.10
2023-05-14T17:01:16.845Z,19.10
2023-05-14T17:03:45.665Z,19.10
2023-05-14T17:06:12.747Z,19.10
2023-05-14T17:08:39.777Z,19.00
2023-05-14T17:11:06.721Z,18.90
2023-05-14T17:13:34.163Z,18.90
2023-05-14T17:16:01.869Z,18.90
2023-05-14T17:18:29.158Z,18.90
2023-05-14T17:20:56.190Z,18.90
2023-05-14T17:23:23.276Z,18.80
2023-05-14T17:25:50.513Z,18.90
2023-05-14T17:28:17.544Z,18.90
2023-05-14T17:30:44.524Z,18.80
2023-05-14T17:33:11.815Z,18.80
2023-05-14T17:35:39.047Z,18.70
2023-05-14T17:38:06.076Z,18.70
2023-05-14T17:40:33.613Z,18.70
2023-05-14T17:43:00.750Z,18.60
2023-05-14T17:45:30.627Z,18.50
2023-05-14T17:48:01.290Z,18.50
2023-05-14T17:50:28.574Z,18.50
2023-05-14T17:52:56.761Z,18.40
2023-05-14T17:55:24.173Z,18.40
2023-05-14T17:57:51.359Z,18.30
2023-05-14T18:00:18.460Z,18.30
2023-05-14T18:02:45.526Z,18.20
2023-05-14T18:05:12.560Z,18.20
2023-05-14T18:07:39.700Z,18.10
2023-05-14T18:10:07.195Z,18.10
2023-05-14T18:12:34.272Z,18.10
2023-05-14T18:15:01.164Z,18.00
2023-05-14T18:17:28.103Z,18.00
2023-05-14T18:19:55.010Z,17.90
2023-05-14T18:22:22.425Z,17.90
2023-05-14T18:24:49.303Z,17.80
2023-05-14T18:27:16.273Z,17.80
2023-05-14T18:29:43.470Z,17.80
2023-05-14T18:32:10.340Z,17.70
2023-05-14T18:34:37.275Z,17.70
2023-05-14T18:37:04.441Z,17.60
2023-05-14T18:39:31.282Z,17.50
2023-05-14T18:41:58.195Z,17.50
2023-05-14T18:44:25.264Z,17.40
2023-05-14T18:46:52.870Z,17.30
2023-05-14T18:49:19.842Z,17.20
2023-05-14T18:51:46.822Z,17.20
2023-05-14T18:54:13.710Z,17.10
2023-05-14T18:56:45.509Z,17.10
2023-05-14T18:59:14.354Z,17.10
2023-05-14T19:01:41.308Z,17.00
2023-05-14T19:04:08.512Z,17.00
2023-05-14T19:06:36.302Z,17.00
2023-05-14T19:09:04.368Z,16.90
2023-05-14T19:11:31.288Z,16.80
2023-05-14T19:13:58.221Z,16.70
2023-05-14T19:16:25.312Z,16.70
2023-05-14T19:18:52.617Z,16.70
2023-05-14T19:21:19.687Z,16.70
2023-05-14T19:23:46.675Z,16.60
2023-05-14T19:26:13.575Z,16.60
2023-05-14T19:28:40.701Z,16.60
2023-05-14T19:31:07.611Z,16.60
2023-05-14T19:33:34.548Z,16.50
2023-05-14T19:36:01.561Z,16.50
2023-05-14T19:38:29.737Z,16.50
2023-05-14T19:40:57.176Z,16.50
2023-05-14T19:43:25.691Z,16.50
2023-05-14T19:45:52.817Z,16.50
2023-05-14T19:48:19.861Z,16.60
2023-05-14T19:50:47.398Z,16.60
2023-05-14T19:53:14.480Z,16.50
2023-05-14T19:55:41.869Z,16.40
2023-05-14T19:58:09.007Z,16.30
2023-05-14T20:00:37.107Z,16.30
2023-05-14T20:03:05.989Z,16.20
2023-05-14T20:05:34.399Z,16.20
2023-05-14T20:08:01.384Z,16.20
2023-05-14T20:10:28.646Z,16.20
2023-05-14T20:12:55.727Z,16.10
2023-05-14T20:15:22.668Z,16.10
2023-05-14T20:17:49.740Z,16.10
2023-05-14T20:20:16.924Z,16.10
2023-05-14T20:22:44.173Z,16.20
2023-05-14T20:25:11.238Z,16.20
2023-05-14T20:27:38.271Z,16.20
2023-05-14T20:30:06.124Z,16.10
2023-05-14T20:32:33.229Z,16.10
2023-05-14T20:35:02.241Z,16.20
2023-05-14T20:37:30.572Z,16.20
2023-05-14T20:39:57.529Z,16.20
2023-05-14T20:42:25.080Z,16.10
2023-05-14T20:44:53.057Z,16.10
2023-05-14T20:47:23.390Z,16.00
2023-05-14T20:49:51.330Z,16.00
2023-05-14T20:52:19.111Z,16.00
2023-05-14T20:54:46.231Z,16.00
2023-05-14T20:57:15.338Z,16.00
2023-05-14T20:59:42.669Z,16.00
2023-05-14T21:02:09.832Z,16.00
2023-05-14T21:04:36.914Z,16.00
2023-05-14T21:07:05.545Z,16.00
2023-05-14T21:09:32.560Z,16.00
2023-05-14T21:11:59.557Z,16.00
2023-05-14T21:14:26.620Z,16.00
2023-05-14T21:16:53.541Z,16.00
2023-05-14T21:19:20.545Z,16.00
2023-05-14T21:21:47.578Z,16.00
2023-05-14T21:24:16.861Z,16.00
2023-05-14T21:26:43.900Z,16.00
2023-05-14T21:29:11.470Z,16.00
2023-05-14T21:31:38.522Z,16.00
2023-05-14T21:34:05.885Z,16.00
2023-05-14T21:36:32.934Z,15.90
2023-05-14T21:39:00.063Z,15.90
2023-05-14T21:41:27.026Z,16.00
2023-05-14T21:43:53.919Z,15.90
2023-05-14T21:46:20.952Z,16.00
2023-05-14T21:48:48.004Z,15.90
2023-05-14T21:51:15.155Z,16.00
2023-05-14T21:53:42.030Z,15.90
2023-05-14T21:56:08.931Z,15.90
2023-05-14T21:58:36.369Z,15.90
2023-05-14T22:01:03.360Z,15.90
2023-05-14T22:03:30.487Z,15.90
2023-05-14T22:05:57.829Z,15.90
2023-05-14T22:08:24.748Z,15.90
2023-05-14T22:10:51.650Z,15.90
2023-05-14T22:13:18.662Z,15.90
2023-05-14T22:15:45.723Z,15.90
2023-05-14T22:18:13.124Z,15.90
2023-05-14T22:20:40.247Z,15.90
2023-05-14T22:23:07.276Z,15.90
2023-05-14T22:25:34.395Z,15.90
2023-05-14T22:28:01.350Z,15.90
2023-05-14T22:30:28.348Z,15.90
2023-05-14T22:32:55.424Z,15.90
2023-05-14T22:35:22.684Z,15.90
2023-05-14T22:37:49.717Z,15.90
2023-05-14T22:40:16.798Z,15.90
2023-05-14T22:42:43.811Z,15.90
2023-05-14T22:45:11.120Z,15.80
2023-05-14T22:47:38.648Z,15.80
2023-05-14T22:50:11.276Z,15.80
2023-05-14T22:52:39.188Z,15.80
2023-05-14T22:55:06.811Z,15.80
2023-05-14T22:57:34.580Z,15.80
2023-05-14T23:00:01.629Z,15.70
2023-05-14T23:02:28.517Z,15.70
2023-05-14T23:04:55.610Z,15.70
2023-05-14T23:07:22.903Z,15.70
2023-05-14T23:09:49.905Z,15.60
2023-05-14T23:12:16.886Z,15.60
2023-05-14T23:14:43.802Z,15.50
2023-05-14T23:17:10.771Z,15.50
2023-05-14T23:19:37.782Z,15.50
2023-05-14T23:22:04.928Z,15.50
2023-05-14T23:24:31.865Z,15.40
2023-05-14T23:26:58.843Z,15.40
2023-05-14T23:29:25.855Z,15.40
2023-05-14T23:31:52.900Z,15.40
2023-05-14T23:34:19.815Z,15.30
2023-05-14T23:36:46.736Z,15.30
2023-05-14T23:39:13.724Z,15.20
2023-05-14T23:41:40.680Z,15.20
2023-05-14T23:44:07.640Z,15.10
2023-05-14T23:46:35.509Z,15.10
2023-05-14T23:49:02.506Z,15.10
2023-05-14T23:51:29.507Z,15.10
2023-05-14T23:53:58.680Z,15.10
2023-05-14T23:56:29.170Z,15.10
2023-05-14T23:58:56.471Z,15.00
